Pagina principale
METAR-TAF:

METAR-TAF

Aeroporti :

Whiting_Field_Naval_Air_Station_South_Airport

Milton, Florida, Stati Uniti

latitudine: 30-41-50N, longitudine: 087-01-12W, altezza: 54 m

Osservazione

Il bollettino è stato emesso 20 minuti fa, alle 14:16 UTC
Vento 6 kt da nord-est
Temperature 9°C
Umidità 87%
Pressione 1018 hPa
Visibilità: 9.7 km
Poco nuvoloso ad un'altezza di 200 ft
foschia

METAR: KNDZ 281416Z 04006KT 6SM BR FEW002 09/07 A3007 RMK AO2 VIS NE-SE 1 T00890072 PNO $

Ora: 08:36 (14:36 UTC)


TAF: mancante

Osservazioni e previsioni meteorologiche di più di 4000 aeroporti (messaggi METAR e TAF).

Le stazioni disponibili sono rappresentate dai dischi gialli e rossi sulla carta.

Puntare il mouse per vedere il nome della stazione.

Clicca sopra per visualizzare le osservazioni e previsioni meteorologiche.

Per cambiare la mappa : fare clic sui pulsanti verdi con una croce nera per ingrandire, il pulsante verde con un trattino per diminuire, o sulla freccia verde per le mappe adiacenti.


METAR-TAF: